Time;durP1;ratioP1;P1;durP2;ratioP2;P2;SDS_P1;SDS_P2;PMS_P1;PMS_P2;Temp;Humidity;BMP_temperature;BMP_pressure;BME280_temperature;BME280_humidity;BME280_pressure;Samples;Min_cycle;Max_cycle;Signal;HPM_P1;HPM_P2
2023/12/28 00:00:27;;;;;;;4.37;2.77;;;10.40;51.20;;;;;;5025808;28;20220;-71
2023/12/28 00:02:53;;;;;;;5.07;2.20;;;10.10;52.50;;;;;;5029443;28;20634;-68
2023/12/28 00:05:18;;;;;;;4.53;2.87;;;10.00;51.30;;;;;;5027972;28;20200;-71
2023/12/28 00:07:44;;;;;;;2.80;2.40;;;10.10;51.00;;;;;;5032516;28;20219;-71
2023/12/28 00:10:10;;;;;;;4.87;2.77;;;10.10;51.80;;;;;;5029784;28;20220;-69
2023/12/28 00:12:35;;;;;;;5.43;3.07;;;10.00;51.80;;;;;;5027825;28;20197;-71
2023/12/28 00:15:01;;;;;;;4.93;2.70;;;9.90;53.30;;;;;;5031203;28;20420;-71
2023/12/28 00:17:27;;;;;;;3.30;2.50;;;9.70;53.80;;;;;;5033960;28;20185;-69
2023/12/28 00:19:52;;;;;;;4.20;2.80;;;9.70;53.40;;;;;;5029558;28;20231;-69
2023/12/28 00:22:18;;;;;;;5.70;2.80;;;9.70;53.30;;;;;;5032722;28;20188;-70
2023/12/28 00:24:43;;;;;;;5.37;2.73;;;9.70;53.00;;;;;;5030408;28;20222;-70
2023/12/28 00:27:09;;;;;;;6.43;3.07;;;9.70;52.40;;;;;;5027292;28;20262;-70
2023/12/28 00:29:38;;;;;;;3.90;2.97;;;9.80;52.20;;;;;;5028001;28;20200;-71
2023/12/28 00:32:07;;;;;;;4.13;3.00;;;9.90;51.80;;;;;;5034877;28;20182;-70
2023/12/28 00:34:32;;;;;;;4.03;2.47;;;9.90;51.70;;;;;;5028865;28;20920;-70
2023/12/28 00:36:58;;;;;;;2.93;2.60;;;10.00;50.70;;;;;;5030151;28;20416;-71
2023/12/28 00:39:24;;;;;;;5.80;2.73;;;10.10;50.30;;;;;;5027593;28;20221;-70
2023/12/28 00:41:49;;;;;;;3.73;2.70;;;10.20;49.90;;;;;;5028583;28;20191;-69
2023/12/28 00:44:15;;;;;;;6.03;2.80;;;10.30;49.80;;;;;;5022847;28;20189;-70
2023/12/28 00:46:41;;;;;;;4.03;2.80;;;10.30;49.80;;;;;;5029375;28;20204;-70
2023/12/28 00:49:06;;;;;;;4.07;2.30;;;10.30;49.70;;;;;;5031065;28;20214;-70
2023/12/28 00:51:32;;;;;;;6.87;3.20;;;10.40;49.70;;;;;;5023468;28;20205;-70
2023/12/28 00:53:57;;;;;;;2.90;2.30;;;10.40;49.50;;;;;;5030121;28;20220;-71
2023/12/28 00:56:23;;;;;;;3.10;2.17;;;10.40;49.80;;;;;;5030694;28;20199;-71
2023/12/28 00:58:49;;;;;;;4.40;2.77;;;10.40;49.90;;;;;;5026502;28;20217;-70
2023/12/28 01:01:14;;;;;;;4.03;2.53;;;10.30;49.90;;;;;;5023233;28;20238;-72
2023/12/28 01:03:40;;;;;;;2.87;2.13;;;10.30;50.30;;;;;;5029706;28;20185;-71
2023/12/28 01:06:06;;;;;;;5.83;2.87;;;10.30;50.70;;;;;;5028294;28;20485;-69
2023/12/28 01:08:33;;;;;;;4.30;2.23;;;10.10;51.70;;;;;;5028806;28;20178;-71
2023/12/28 01:10:59;;;;;;;4.40;2.80;;;10.10;52.20;;;;;;5023449;28;20474;-71
2023/12/28 01:13:25;;;;;;;4.93;2.90;;;9.90;52.80;;;;;;5031122;28;20834;-70
2023/12/28 01:15:51;;;;;;;7.30;3.23;;;9.80;53.20;;;;;;5030838;28;20511;-71
2023/12/28 01:18:16;;;;;;;4.37;3.30;;;9.80;53.30;;;;;;5030510;28;20220;-71
2023/12/28 01:20:42;;;;;;;5.20;3.00;;;9.70;53.70;;;;;;5028209;28;20200;-69
2023/12/28 01:23:07;;;;;;;3.30;2.53;;;9.60;54.00;;;;;;5028006;28;20600;-69
2023/12/28 01:25:34;;;;;;;3.50;2.63;;;9.50;54.20;;;;;;5030951;28;20188;-69
2023/12/28 01:27:59;;;;;;;3.60;2.47;;;9.50;54.50;;;;;;5027842;28;20190;-71
2023/12/28 01:30:26;;;;;;;3.50;2.50;;;9.30;55.20;;;;;;5025355;28;20447;-69
2023/12/28 01:32:51;;;;;;;4.70;2.83;;;9.20;55.40;;;;;;5024247;28;20336;-71
2023/12/28 01:35:17;;;;;;;4.93;3.13;;;9.10;55.40;;;;;;5032237;28;20416;-69
2023/12/28 01:37:42;;;;;;;3.70;2.30;;;9.00;55.70;;;;;;5026863;28;20683;-71
2023/12/28 01:40:09;;;;;;;5.27;2.67;;;9.10;55.40;;;;;;5032082;28;20224;-72
2023/12/28 01:42:35;;;;;;;5.30;2.50;;;9.10;55.40;;;;;;5026616;28;20185;-70
2023/12/28 01:45:01;;;;;;;5.50;2.70;;;9.00;55.60;;;;;;5029560;28;20515;-70
2023/12/28 01:47:27;;;;;;;2.90;2.17;;;9.00;55.80;;;;;;5025275;28;20515;-70
2023/12/28 01:49:53;;;;;;;4.50;2.53;;;9.10;55.70;;;;;;5027151;28;20210;-70
2023/12/28 01:52:20;;;;;;;4.20;2.67;;;9.10;55.80;;;;;;5023338;28;20480;-69
2023/12/28 01:54:46;;;;;;;4.83;2.83;;;9.10;56.50;;;;;;5028140;28;20478;-69
2023/12/28 01:57:13;;;;;;;3.03;2.30;;;8.90;56.20;;;;;;5028988;28;20448;-69
2023/12/28 01:59:39;;;;;;;4.10;2.93;;;8.90;57.00;;;;;;5024508;28;20226;-70
2023/12/28 02:02:05;;;;;;;4.37;2.60;;;8.80;57.20;;;;;;5027896;28;20417;-70
2023/12/28 02:04:31;;;;;;;3.20;2.27;;;8.90;57.00;;;;;;5026739;28;20435;-71
2023/12/28 02:07:03;;;;;;;2.87;2.30;;;8.90;56.80;;;;;;5030898;28;21119;-69
2023/12/28 02:09:29;;;;;;;4.60;2.43;;;8.90;56.80;;;;;;5031201;28;20185;-71
2023/12/28 02:11:54;;;;;;;3.70;2.53;;;8.90;57.00;;;;;;5030549;28;20501;-70
2023/12/28 02:14:22;;;;;;;3.70;2.50;;;8.80;57.70;;;;;;5031493;28;20185;-69
2023/12/28 02:17:04;;;;;;;3.13;2.27;;;8.80;58.40;;;;;;5024195;28;20244;-69
2023/12/28 02:19:53;;;;;;;5.80;2.83;;;8.70;58.40;;;;;;5021098;28;20503;-68
2023/12/28 02:22:21;;;;;;;5.20;2.63;;;8.60;58.70;;;;;;5023323;28;20424;-69
2023/12/28 02:25:11;;;;;;;5.80;3.23;;;8.50;59.70;;;;;;5024820;28;20433;-71
2023/12/28 02:27:48;;;;;;;3.80;2.57;;;8.40;60.40;;;;;;5031398;28;20444;-68
2023/12/28 02:30:17;;;;;;;5.43;2.97;;;8.20;61.20;;;;;;5020560;28;20826;-70
2023/12/28 02:33:01;;;;;;;3.97;2.50;;;8.10;61.30;;;;;;5026957;28;20482;-69
2023/12/28 02:35:35;;;;;;;4.17;2.50;;;8.10;61.00;;;;;;5022454;28;20431;-71
2023/12/28 02:38:08;;;;;;;3.60;2.50;;;8.00;60.00;;;;;;5020924;28;20428;-70
2023/12/28 02:40:43;;;;;;;4.10;2.80;;;8.00;60.30;;;;;;5024382;28;20502;-69
2023/12/28 02:43:10;;;;;;;4.50;2.60;;;8.00;61.70;;;;;;5025672;28;20434;-70
2023/12/28 02:45:36;;;;;;;4.37;2.70;;;7.90;62.60;;;;;;5035501;28;20468;-71
2023/12/28 02:48:03;;;;;;;6.13;2.60;;;7.80;63.20;;;;;;5034828;28;20503;-70
2023/12/28 02:50:31;;;;;;;5.33;3.10;;;7.90;63.50;;;;;;5031536;28;20498;-69
2023/12/28 02:52:57;;;;;;;6.47;2.93;;;7.80;63.80;;;;;;5028825;28;20432;-70
2023/12/28 02:55:23;;;;;;;5.80;2.80;;;7.80;64.10;;;;;;5033090;28;20446;-71
2023/12/28 02:57:50;;;;;;;6.20;3.07;;;7.70;64.20;;;;;;5032154;28;20567;-70
2023/12/28 03:00:18;;;;;;;5.70;3.07;;;7.60;64.70;;;;;;5024077;28;20499;-69
2023/12/28 03:02:43;;;;;;;5.43;3.17;;;7.40;65.10;;;;;;5026626;28;20432;-72
2023/12/28 03:05:09;;;;;;;6.03;3.27;;;7.40;63.50;;;;;;5030755;28;20431;-70
2023/12/28 03:07:35;;;;;;;3.80;3.00;;;7.50;62.80;;;;;;5026172;28;20209;-70
2023/12/28 03:10:02;;;;;;;4.13;2.87;;;7.50;62.30;;;;;;5023255;28;20572;-70
2023/12/28 03:12:29;;;;;;;4.20;2.70;;;7.60;61.60;;;;;;5028647;28;20430;-70
2023/12/28 03:14:54;;;;;;;5.63;3.10;;;7.70;61.20;;;;;;5028401;28;20421;-72
2023/12/28 03:17:20;;;;;;;3.83;2.57;;;7.80;61.00;;;;;;5023627;28;20546;-72
2023/12/28 03:19:46;;;;;;;4.60;2.70;;;8.00;61.50;;;;;;5026011;28;20217;-69
2023/12/28 03:22:11;;;;;;;5.70;3.27;;;8.00;61.50;;;;;;5027735;28;20646;-70
2023/12/28 03:24:38;;;;;;;7.37;4.13;;;7.90;61.70;;;;;;5030131;28;20239;-70
2023/12/28 03:27:04;;;;;;;6.13;3.10;;;7.90;62.30;;;;;;5028178;28;20624;-71
2023/12/28 03:29:30;;;;;;;5.80;2.67;;;7.80;63.20;;;;;;5030536;28;20798;-69
2023/12/28 03:31:56;;;;;;;6.63;3.47;;;7.80;63.70;;;;;;5025559;28;20573;-70
2023/12/28 03:34:22;;;;;;;6.83;3.00;;;7.80;63.80;;;;;;5030519;28;20435;-70
2023/12/28 03:36:49;;;;;;;5.87;3.30;;;7.90;64.40;;;;;;5032984;28;20428;-70
2023/12/28 03:39:14;;;;;;;5.07;3.60;;;7.70;64.80;;;;;;5030933;28;20475;-69
2023/12/28 03:41:40;;;;;;;7.50;3.67;;;7.70;65.30;;;;;;5026529;28;20897;-69
2023/12/28 03:44:06;;;;;;;6.70;3.40;;;7.60;65.80;;;;;;5026017;28;20213;-71
2023/12/28 03:46:31;;;;;;;7.90;3.63;;;7.50;66.10;;;;;;5030495;28;20185;-72
2023/12/28 03:48:57;;;;;;;3.90;3.10;;;7.40;66.60;;;;;;5028210;28;20190;-70
2023/12/28 03:51:23;;;;;;;6.60;3.00;;;7.30;66.90;;;;;;5027018;28;20205;-70
2023/12/28 03:53:48;;;;;;;4.23;2.87;;;7.20;67.30;;;;;;5020963;28;20305;-69
2023/12/28 03:56:25;;;;;;;5.77;3.30;;;7.30;67.60;;;;;;5030529;28;20529;-70
2023/12/28 03:58:51;;;;;;;4.77;3.23;;;7.20;67.90;;;;;;5026517;28;20725;-70
2023/12/28 04:01:22;;;;;;;6.93;3.27;;;7.10;68.30;;;;;;5028748;28;20474;-69
2023/12/28 04:03:48;;;;;;;5.50;3.27;;;7.00;68.90;;;;;;5022191;28;20460;-70
2023/12/28 04:06:15;;;;;;;5.50;3.60;;;6.90;69.20;;;;;;5028378;28;20424;-71
2023/12/28 04:08:41;;;;;;;6.07;3.37;;;6.80;69.40;;;;;;5019727;28;20430;-69
2023/12/28 04:11:07;;;;;;;4.93;2.93;;;6.70;69.50;;;;;;5019275;28;20452;-70
2023/12/28 04:13:32;;;;;;;6.67;3.20;;;6.70;69.50;;;;;;5027187;28;20420;-70
2023/12/28 04:15:58;;;;;;;5.03;3.30;;;6.70;69.70;;;;;;5030798;28;20299;-70
2023/12/28 04:18:24;;;;;;;6.00;3.60;;;6.80;69.80;;;;;;5021833;28;21101;-69
2023/12/28 04:20:49;;;;;;;6.20;4.03;;;6.80;69.80;;;;;;5029682;28;20660;-71
2023/12/28 04:23:15;;;;;;;5.60;3.30;;;6.80;69.70;;;;;;5025228;28;20177;-69
2023/12/28 04:25:41;;;;;;;6.03;3.50;;;6.80;69.80;;;;;;5028075;28;20181;-69
2023/12/28 04:28:07;;;;;;;5.27;2.93;;;6.80;69.70;;;;;;5024039;28;20824;-69
2023/12/28 04:30:33;;;;;;;4.80;2.77;;;6.80;69.70;;;;;;5028344;28;20209;-69
2023/12/28 04:33:00;;;;;;;6.23;3.03;;;6.90;69.70;;;;;;5029190;28;20408;-71
2023/12/28 04:35:25;;;;;;;4.93;2.83;;;6.90;69.20;;;;;;5029765;28;20936;-70
2023/12/28 04:37:51;;;;;;;5.13;2.70;;;7.00;68.60;;;;;;5029026;28;20423;-70
2023/12/28 04:40:17;;;;;;;4.60;3.10;;;7.10;68.60;;;;;;5027111;28;20553;-70
2023/12/28 04:42:43;;;;;;;6.53;3.40;;;7.20;68.30;;;;;;5029292;28;20196;-72
2023/12/28 04:45:12;;;;;;;8.50;4.13;;;7.30;68.30;;;;;;5030626;28;20623;-72
2023/12/28 04:47:38;;;;;;;4.40;3.07;;;7.40;68.50;;;;;;5021300;28;20765;-69
2023/12/28 04:50:05;;;;;;;5.33;3.23;;;7.30;68.60;;;;;;5026806;28;20983;-69
2023/12/28 04:52:30;;;;;;;6.03;3.60;;;7.30;68.80;;;;;;5024520;28;20538;-71
2023/12/28 04:54:56;;;;;;;5.50;3.20;;;7.30;68.90;;;;;;5028774;28;20765;-71
2023/12/28 04:57:24;;;;;;;4.57;3.13;;;7.30;68.90;;;;;;5029268;28;20220;-69
2023/12/28 04:59:50;;;;;;;5.30;3.37;;;7.30;68.90;;;;;;5027587;28;20224;-70
2023/12/28 05:02:16;;;;;;;5.90;3.03;;;7.40;68.80;;;;;;5025680;28;20411;-70
2023/12/28 05:04:41;;;;;;;6.33;2.93;;;7.40;68.80;;;;;;5027907;28;20642;-69
2023/12/28 05:07:07;;;;;;;4.80;2.40;;;7.40;68.30;;;;;;5029927;28;20471;-69
2023/12/28 05:09:33;;;;;;;3.67;2.30;;;7.40;67.90;;;;;;5020784;28;20247;-70
2023/12/28 05:11:58;;;;;;;5.90;2.80;;;7.50;67.20;;;;;;5024579;28;20201;-70
2023/12/28 05:14:24;;;;;;;5.57;2.80;;;7.50;66.90;;;;;;5029373;28;20192;-69
2023/12/28 05:16:50;;;;;;;3.97;2.53;;;7.60;66.70;;;;;;5030511;28;20182;-69
2023/12/28 05:19:15;;;;;;;3.57;2.13;;;7.70;66.60;;;;;;5031419;28;20747;-70
2023/12/28 05:21:41;;;;;;;4.80;2.50;;;7.70;66.10;;;;;;5022985;28;20201;-69
2023/12/28 05:24:07;;;;;;;4.60;2.43;;;7.80;65.70;;;;;;5021629;28;20556;-68
2023/12/28 05:26:32;;;;;;;4.10;2.30;;;7.90;65.30;;;;;;5029624;28;20256;-70
2023/12/28 05:28:58;;;;;;;4.27;2.47;;;8.00;65.10;;;;;;5027073;28;20189;-70
2023/12/28 05:31:23;;;;;;;3.23;2.17;;;8.00;64.50;;;;;;5024111;28;20212;-69
2023/12/28 05:33:51;;;;;;;3.30;2.13;;;8.20;64.50;;;;;;5027337;28;20208;-70
2023/12/28 05:36:16;;;;;;;3.80;1.90;;;8.50;63.20;;;;;;5026281;28;20190;-69
2023/12/28 05:38:42;;;;;;;3.90;2.10;;;8.80;62.50;;;;;;5022280;28;20998;-70
2023/12/28 05:41:09;;;;;;;4.73;2.97;;;9.10;62.00;;;;;;5018320;28;20216;-69
2023/12/28 05:43:35;;;;;;;5.70;2.70;;;9.20;62.20;;;;;;5018314;28;20181;-71
2023/12/28 05:46:01;;;;;;;3.47;2.20;;;9.20;62.30;;;;;;5024661;28;20801;-70
2023/12/28 05:48:26;;;;;;;5.93;2.17;;;9.20;62.20;;;;;;5024348;28;20185;-69
2023/12/28 05:50:52;;;;;;;3.13;2.30;;;9.20;61.90;;;;;;5026388;28;20201;-68
2023/12/28 05:53:17;;;;;;;3.97;2.30;;;9.30;61.20;;;;;;5028544;28;20264;-69
2023/12/28 05:55:44;;;;;;;2.43;2.10;;;9.50;60.60;;;;;;5025935;28;20235;-69
2023/12/28 05:58:09;;;;;;;3.23;2.27;;;9.50;60.60;;;;;;5022669;28;20868;-69
2023/12/28 06:00:42;;;;;;;3.53;2.07;;;9.70;60.10;;;;;;5019520;28;20818;-72
2023/12/28 06:03:08;;;;;;;3.00;2.07;;;9.70;60.00;;;;;;5023451;28;20192;-69
2023/12/28 06:05:34;;;;;;;5.33;2.67;;;9.80;60.10;;;;;;5021527;28;20425;-70
2023/12/28 06:07:59;;;;;;;6.90;2.13;;;10.00;59.70;;;;;;5033144;28;20185;-70
2023/12/28 06:10:25;;;;;;;3.30;2.03;;;10.00;60.10;;;;;;5030195;28;20205;-70
2023/12/28 06:12:51;;;;;;;6.20;2.43;;;10.10;60.30;;;;;;5028175;28;20208;-70
2023/12/28 06:15:16;;;;;;;4.83;2.57;;;10.10;60.30;;;;;;5029648;28;20216;-69
2023/12/28 06:17:42;;;;;;;3.50;2.20;;;10.30;60.00;;;;;;5029925;28;20268;-70
2023/12/28 06:20:09;;;;;;;5.63;1.93;;;10.30;60.40;;;;;;5025645;28;20239;-68
2023/12/28 06:22:37;;;;;;;3.33;1.63;;;10.50;60.00;;;;;;5033546;28;20181;-69
2023/12/28 06:25:03;;;;;;;6.00;2.30;;;10.40;60.40;;;;;;5028680;28;20427;-68
2023/12/28 06:27:29;;;;;;;3.10;1.70;;;10.70;59.90;;;;;;5034099;28;20928;-69
2023/12/28 06:29:54;;;;;;;2.67;1.90;;;10.90;59.60;;;;;;5033342;28;20462;-70
2023/12/28 06:32:20;;;;;;;3.20;1.90;;;11.00;59.30;;;;;;5027840;28;20673;-69
2023/12/28 06:34:46;;;;;;;2.30;1.47;;;11.00;59.30;;;;;;5020765;28;20182;-70
2023/12/28 06:37:12;;;;;;;5.33;2.17;;;11.10;59.20;;;;;;5022387;28;20272;-68
2023/12/28 06:39:39;;;;;;;2.23;1.77;;;11.10;59.30;;;;;;5017066;28;20210;-69
2023/12/28 06:42:05;;;;;;;3.53;2.13;;;11.10;59.50;;;;;;5023534;28;20424;-70
2023/12/28 06:44:30;;;;;;;3.57;1.90;;;11.20;59.70;;;;;;5026183;28;20502;-69
2023/12/28 06:46:56;;;;;;;4.20;2.13;;;11.20;59.90;;;;;;5025965;28;20210;-70
2023/12/28 06:49:21;;;;;;;4.90;2.50;;;11.30;59.60;;;;;;5030489;28;20197;-70
2023/12/28 06:51:47;;;;;;;3.10;2.17;;;11.30;59.70;;;;;;5020468;28;20239;-69
2023/12/28 06:54:14;;;;;;;3.00;1.90;;;11.30;59.60;;;;;;5022575;28;20189;-69
2023/12/28 06:56:40;;;;;;;4.37;1.87;;;11.30;59.70;;;;;;5028462;28;20201;-69
2023/12/28 06:59:06;;;;;;;3.10;1.90;;;11.30;59.90;;;;;;5023178;28;20552;-70
2023/12/28 07:01:31;;;;;;;5.20;2.27;;;11.30;60.30;;;;;;5028596;28;20751;-68
2023/12/28 07:03:59;;;;;;;3.00;2.17;;;11.30;60.40;;;;;;5024918;28;20185;-70
2023/12/28 07:06:24;;;;;;;2.53;1.80;;;11.10;60.70;;;;;;5032745;28;20560;-68
2023/12/28 07:08:50;;;;;;;2.97;2.00;;;11.20;61.00;;;;;;5032744;28;20439;-71
2023/12/28 07:11:16;;;;;;;5.47;2.60;;;11.10;61.30;;;;;;5031815;28;20205;-69
2023/12/28 07:13:41;;;;;;;3.40;1.90;;;11.20;61.70;;;;;;5031307;28;20196;-68
2023/12/28 07:16:07;;;;;;;5.43;2.60;;;11.20;61.70;;;;;;5031436;28;20187;-68
2023/12/28 07:18:33;;;;;;;3.83;2.20;;;11.10;62.00;;;;;;5038135;28;20209;-70
2023/12/28 07:21:00;;;;;;;4.60;2.33;;;11.10;62.30;;;;;;5032760;28;20870;-69
2023/12/28 07:23:25;;;;;;;4.40;2.10;;;11.00;62.30;;;;;;5037469;28;20188;-69
2023/12/28 07:25:51;;;;;;;2.50;1.83;;;11.00;62.90;;;;;;5034621;28;20416;-69
2023/12/28 07:28:17;;;;;;;4.83;2.30;;;11.10;62.80;;;;;;5030696;28;20625;-69
2023/12/28 07:30:42;;;;;;;3.67;2.40;;;11.20;62.50;;;;;;5030275;28;20205;-68
2023/12/28 07:33:08;;;;;;;4.27;2.20;;;11.10;62.60;;;;;;5029624;28;20185;-70
2023/12/28 07:35:34;;;;;;;3.27;1.97;;;11.00;63.20;;;;;;5028084;28;20522;-69
2023/12/28 07:37:59;;;;;;;4.00;2.10;;;11.00;63.20;;;;;;5031822;28;20654;-69
2023/12/28 07:40:25;;;;;;;3.70;2.10;;;11.00;63.20;;;;;;5024586;28;20221;-68
2023/12/28 07:42:50;;;;;;;3.10;2.03;;;11.00;63.10;;;;;;5031055;28;20189;-69
2023/12/28 07:45:17;;;;;;;4.13;2.30;;;11.10;62.90;;;;;;5031056;28;20189;-69
2023/12/28 07:47:44;;;;;;;4.53;2.23;;;11.10;62.80;;;;;;5032206;28;20254;-70
2023/12/28 07:50:10;;;;;;;4.10;2.43;;;11.20;62.50;;;;;;5026980;28;20909;-71
2023/12/28 07:52:37;;;;;;;2.73;2.00;;;11.20;62.30;;;;;;5031430;28;21129;-72
2023/12/28 07:55:04;;;;;;;2.93;2.57;;;11.30;62.80;;;;;;5031600;28;20490;-70
2023/12/28 07:57:30;;;;;;;4.90;2.50;;;11.40;62.30;;;;;;5033342;28;20428;-70
2023/12/28 07:59:56;;;;;;;6.17;3.50;;;11.40;62.80;;;;;;5030491;28;20482;-69
2023/12/28 08:02:22;;;;;;;6.07;3.63;;;11.30;62.60;;;;;;5031073;28;20440;-68
2023/12/28 08:04:48;;;;;;;5.43;3.40;;;10.80;63.40;;;;;;5032225;28;20549;-71
2023/12/28 08:07:14;;;;;;;6.90;3.90;;;10.60;64.20;;;;;;5031559;28;20189;-70
2023/12/28 08:09:39;;;;;;;8.83;3.50;;;10.50;64.50;;;;;;5028509;28;20484;-70
2023/12/28 08:12:05;;;;;;;6.40;3.63;;;10.50;64.80;;;;;;5029856;28;20204;-68
2023/12/28 08:14:31;;;;;;;5.63;3.60;;;10.50;65.30;;;;;;5029294;28;20230;-71
2023/12/28 08:16:56;;;;;;;8.20;3.83;;;10.50;65.10;;;;;;5031935;28;20269;-70
2023/12/28 08:19:22;;;;;;;10.23;4.10;;;10.50;65.10;;;;;;5024559;28;20593;-70
2023/12/28 08:21:48;;;;;;;15.07;6.10;;;10.40;65.70;;;;;;5037835;28;20315;-72
2023/12/28 08:24:14;;;;;;;8.27;4.40;;;10.40;65.80;;;;;;5038544;28;20192;-70
2023/12/28 08:26:39;;;;;;;7.67;4.30;;;10.40;65.80;;;;;;5041364;28;20204;-69
2023/12/28 08:29:05;;;;;;;6.37;3.93;;;10.40;65.60;;;;;;5038735;28;20416;-70
2023/12/28 08:31:31;;;;;;;5.47;3.50;;;10.30;65.80;;;;;;5022320;28;20213;-70
2023/12/28 08:33:57;;;;;;;9.43;4.40;;;10.40;65.40;;;;;;5029533;28;20875;-70
2023/12/28 08:36:22;;;;;;;11.83;5.80;;;10.40;65.70;;;;;;5031001;28;20676;-69
2023/12/28 08:38:48;;;;;;;9.10;4.80;;;10.40;66.00;;;;;;5030689;28;20292;-68
2023/12/28 08:41:26;;;;;;;10.50;4.70;;;10.30;66.10;;;;;;5025637;28;20622;-70
2023/12/28 08:43:53;;;;;;;9.53;4.57;;;10.40;66.40;;;;;;5028223;28;20416;-69
2023/12/28 08:46:20;;;;;;;9.80;5.00;;;10.50;66.30;;;;;;5022584;28;20420;-72
2023/12/28 08:48:45;;;;;;;7.30;3.80;;;10.40;66.70;;;;;;5025058;28;20420;-69
2023/12/28 08:51:11;;;;;;;6.97;3.83;;;10.50;67.00;;;;;;5024928;28;21018;-70
2023/12/28 08:53:37;;;;;;;7.97;4.13;;;10.50;67.30;;;;;;5027455;28;20227;-69
2023/12/28 08:56:12;;;;;;;11.60;5.40;;;10.50;67.50;;;;;;5028369;28;20223;-69
2023/12/28 08:58:38;;;;;;;9.27;4.47;;;10.40;68.00;;;;;;5027967;28;20959;-71
2023/12/28 09:01:03;;;;;;;8.50;4.57;;;10.30;68.00;;;;;;5023781;28;20451;-69
2023/12/28 09:03:29;;;;;;;9.63;4.80;;;10.20;68.00;;;;;;5027958;28;20181;-70
2023/12/28 09:05:55;;;;;;;9.00;4.73;;;10.20;68.20;;;;;;5028986;28;20205;-71
2023/12/28 09:08:20;;;;;;;9.80;4.90;;;10.20;68.30;;;;;;5027713;28;20199;-72
2023/12/28 09:10:46;;;;;;;7.80;4.47;;;10.40;68.30;;;;;;5027931;28;20296;-70
2023/12/28 09:13:16;;;;;;;10.03;5.07;;;10.50;68.00;;;;;;5027850;28;20247;-69
2023/12/28 09:15:42;;;;;;;8.83;5.70;;;10.60;68.00;;;;;;5028457;28;20424;-70
2023/12/28 09:18:09;;;;;;;10.87;4.83;;;10.50;67.90;;;;;;5030015;28;20439;-68
2023/12/28 09:20:35;;;;;;;15.43;4.87;;;10.50;68.20;;;;;;5026200;28;20320;-71
2023/12/28 09:23:01;;;;;;;8.57;4.37;;;10.50;68.20;;;;;;5024632;28;20421;-69
2023/12/28 09:25:26;;;;;;;9.73;4.83;;;10.50;68.20;;;;;;5023963;28;20428;-71
2023/12/28 09:27:53;;;;;;;8.00;3.70;;;10.50;68.50;;;;;;5022041;28;20484;-70
2023/12/28 09:30:19;;;;;;;6.90;4.07;;;10.60;68.30;;;;;;5025466;28;20216;-70
2023/12/28 09:32:45;;;;;;;7.63;4.40;;;10.70;68.30;;;;;;5026590;28;20420;-71
2023/12/28 09:35:10;;;;;;;11.93;3.97;;;10.70;68.20;;;;;;5026091;28;20178;-69
2023/12/28 09:37:36;;;;;;;8.17;3.50;;;10.90;67.50;;;;;;5024175;28;20663;-70
2023/12/28 09:40:02;;;;;;;7.17;3.90;;;11.00;67.50;;;;;;5015330;28;20227;-69
2023/12/28 09:42:37;;;;;;;11.53;4.73;;;11.00;67.70;;;;;;5024090;28;20200;-70
2023/12/28 09:45:03;;;;;;;5.87;3.10;;;11.00;67.90;;;;;;5029399;28;20431;-69
2023/12/28 09:47:31;;;;;;;8.90;3.70;;;11.00;68.60;;;;;;5021031;28;20491;-69
2023/12/28 09:49:56;;;;;;;7.20;3.60;;;11.10;68.60;;;;;;5023809;28;20464;-69
2023/12/28 09:52:22;;;;;;;9.23;4.10;;;11.20;68.60;;;;;;5024362;28;20421;-70
2023/12/28 09:54:48;;;;;;;10.87;4.17;;;11.20;69.10;;;;;;5029594;28;20567;-69
2023/12/28 09:57:14;;;;;;;7.83;4.40;;;11.20;69.40;;;;;;5024598;28;20186;-70
2023/12/28 09:59:40;;;;;;;5.13;2.87;;;11.20;69.40;;;;;;5025131;28;20292;-70
2023/12/28 10:02:07;;;;;;;6.63;3.03;;;11.30;69.20;;;;;;5022462;28;21355;-69
2023/12/28 10:04:32;;;;;;;4.50;3.17;;;11.30;69.20;;;;;;5026646;28;20435;-69
2023/12/28 10:06:58;;;;;;;6.93;3.17;;;11.50;69.10;;;;;;5029040;28;20424;-70
2023/12/28 10:09:26;;;;;;;6.33;3.30;;;11.50;68.90;;;;;;5028315;28;20204;-70
2023/12/28 10:11:53;;;;;;;5.93;3.10;;;11.50;68.80;;;;;;5020137;28;20193;-70
2023/12/28 10:14:20;;;;;;;5.07;3.37;;;11.40;68.30;;;;;;5027506;28;20428;-70
2023/12/28 10:16:46;;;;;;;5.87;3.40;;;11.40;68.80;;;;;;5028352;28;20439;-71
2023/12/28 10:19:12;;;;;;;4.33;2.70;;;11.40;68.60;;;;;;5020606;28;20509;-67
2023/12/28 10:21:40;;;;;;;4.03;2.70;;;11.40;68.30;;;;;;5025484;28;20451;-69
2023/12/28 10:24:05;;;;;;;4.80;2.63;;;11.50;68.20;;;;;;5028486;28;20806;-69
2023/12/28 10:26:31;;;;;;;5.63;2.97;;;11.50;67.90;;;;;;5026196;28;20474;-70
2023/12/28 10:29:00;;;;;;;3.93;2.73;;;11.60;67.70;;;;;;5027912;28;20344;-70
2023/12/28 10:31:26;;;;;;;3.80;2.73;;;11.60;67.60;;;;;;5020935;28;20452;-70
2023/12/28 10:33:52;;;;;;;4.50;2.37;;;11.70;67.60;;;;;;5032534;28;20431;-71
2023/12/28 10:36:19;;;;;;;2.83;2.30;;;11.80;67.30;;;;;;5029431;28;20185;-69
2023/12/28 10:38:47;;;;;;;5.70;2.33;;;11.80;67.30;;;;;;5032593;28;20582;-70
2023/12/28 10:41:15;;;;;;;5.30;2.20;;;11.80;67.50;;;;;;5021753;28;20506;-70
2023/12/28 10:43:51;;;;;;;4.53;2.50;;;11.80;67.50;;;;;;5032639;28;20415;-69
2023/12/28 10:46:27;;;;;;;4.73;2.77;;;11.80;67.50;;;;;;5024898;28;20438;-70
2023/12/28 10:48:59;;;;;;;4.27;2.47;;;11.80;67.60;;;;;;5026041;28;20489;-70
2023/12/28 10:51:29;;;;;;;8.10;3.20;;;11.90;67.90;;;;;;5025050;28;20521;-71
2023/12/28 10:54:22;;;;;;;3.63;2.43;;;12.00;67.70;;;;;;5032153;28;20538;-69
2023/12/28 10:57:03;;;;;;;7.60;2.90;;;12.00;67.90;;;;;;5031874;28;20438;-70
2023/12/28 10:59:48;;;;;;;4.00;2.40;;;12.00;68.00;;;;;;5027586;28;20884;-69
2023/12/28 11:02:21;;;;;;;4.20;2.27;;;12.10;68.00;;;;;;5028203;28;20455;-70
2023/12/28 11:04:49;;;;;;;2.90;2.13;;;12.20;68.20;;;;;;5030490;28;20419;-69
2023/12/28 11:07:18;;;;;;;4.67;2.17;;;12.10;68.90;;;;;;5028749;28;20512;-69
2023/12/28 11:09:44;;;;;;;4.60;2.00;;;12.10;68.80;;;;;;5032517;28;20439;-68
2023/12/28 11:12:10;;;;;;;3.47;2.13;;;12.20;68.80;;;;;;5027859;28;20561;-71
2023/12/28 11:14:39;;;;;;;4.07;2.20;;;12.20;68.80;;;;;;5032366;28;20988;-68
2023/12/28 11:17:05;;;;;;;3.53;1.90;;;12.20;68.80;;;;;;5028303;28;20443;-70
2023/12/28 11:19:32;;;;;;;2.40;1.70;;;12.10;69.40;;;;;;5030371;28;20490;-71
2023/12/28 11:22:01;;;;;;;3.40;2.00;;;12.10;69.40;;;;;;5024922;28;20281;-71
2023/12/28 11:24:31;;;;;;;2.60;2.13;;;12.10;69.40;;;;;;5029898;28;20448;-71
2023/12/28 11:26:57;;;;;;;8.53;1.97;;;12.20;69.50;;;;;;5030223;28;20516;-71
2023/12/28 11:29:23;;;;;;;3.90;2.13;;;12.20;69.50;;;;;;5033748;28;20440;-70
2023/12/28 11:31:57;;;;;;;3.40;2.07;;;12.30;69.20;;;;;;5017986;28;20523;-70
2023/12/28 11:34:28;;;;;;;3.37;1.93;;;12.20;69.50;;;;;;5026364;28;20737;-70
2023/12/28 11:36:56;;;;;;;3.03;1.90;;;12.30;69.50;;;;;;5031034;28;20419;-69
2023/12/28 11:39:34;;;;;;;2.70;1.90;;;12.30;69.20;;;;;;5027029;28;20475;-70
2023/12/28 11:42:04;;;;;;;2.07;1.70;;;12.20;69.70;;;;;;5023931;28;20432;-71
2023/12/28 11:44:31;;;;;;;4.17;1.93;;;12.30;69.70;;;;;;5030448;28;20782;-70
2023/12/28 11:46:57;;;;;;;4.33;2.13;;;12.30;69.80;;;;;;5032331;28;20984;-69
2023/12/28 11:49:29;;;;;;;3.43;2.03;;;12.30;69.80;;;;;;5033500;28;20428;-71
2023/12/28 11:51:59;;;;;;;6.50;2.33;;;12.30;69.70;;;;;;5029781;28;20526;-72
2023/12/28 11:54:26;;;;;;;4.57;2.10;;;12.30;69.90;;;;;;5032459;28;20511;-71
2023/12/28 11:56:52;;;;;;;3.97;2.33;;;12.30;69.80;;;;;;5029752;28;20464;-72
2023/12/28 11:59:19;;;;;;;3.17;2.10;;;12.20;69.80;;;;;;5022920;28;20468;-70
2023/12/28 12:01:51;;;;;;;2.40;1.60;;;12.30;69.90;;;;;;5024921;28;20452;-72
2023/12/28 12:04:17;;;;;;;3.60;2.47;;;12.40;69.80;;;;;;5025495;28;20486;-70
2023/12/28 12:06:44;;;;;;;3.07;1.97;;;12.40;69.80;;;;;;5029043;28;20500;-70
2023/12/28 12:09:11;;;;;;;2.90;1.93;;;12.50;69.50;;;;;;5027435;28;20517;-69
2023/12/28 12:11:38;;;;;;;2.90;1.70;;;12.50;69.50;;;;;;5024849;28;20474;-70
2023/12/28 12:14:08;;;;;;;4.80;2.37;;;12.40;69.50;;;;;;5031223;28;20907;-70
2023/12/28 12:16:35;;;;;;;2.97;1.90;;;12.40;69.70;;;;;;5028654;28;20965;-70
2023/12/28 12:19:01;;;;;;;2.90;1.70;;;12.40;69.50;;;;;;5032071;28;20470;-70
2023/12/28 12:21:27;;;;;;;4.90;2.37;;;12.40;69.50;;;;;;5025562;28;20461;-70
2023/12/28 12:23:54;;;;;;;3.80;2.50;;;12.40;69.70;;;;;;5029612;28;20711;-70
2023/12/28 12:26:21;;;;;;;3.83;2.20;;;12.40;69.50;;;;;;5029379;28;20421;-70
2023/12/28 12:28:47;;;;;;;3.43;2.10;;;12.40;69.50;;;;;;5028304;28;20416;-68
2023/12/28 12:31:14;;;;;;;3.90;2.20;;;12.30;69.50;;;;;;5027612;28;20452;-69
2023/12/28 12:33:39;;;;;;;3.03;2.07;;;12.40;69.50;;;;;;5032314;28;20463;-70
2023/12/28 12:36:08;;;;;;;4.30;2.57;;;12.40;69.50;;;;;;5031173;28;20515;-69
2023/12/28 12:38:33;;;;;;;3.43;2.67;;;12.40;69.50;;;;;;5032489;28;20192;-72
2023/12/28 12:40:59;;;;;;;5.93;2.13;;;12.60;69.70;;;;;;5022491;28;20457;-69
2023/12/28 12:43:26;;;;;;;4.97;2.90;;;12.50;69.40;;;;;;5027755;28;20661;-72
2023/12/28 12:45:52;;;;;;;3.37;2.40;;;12.60;69.20;;;;;;5019330;28;20193;-70
2023/12/28 12:48:17;;;;;;;5.57;2.70;;;12.70;69.40;;;;;;5030827;28;20518;-70